Time;durP1;ratioP1;P1;durP2;ratioP2;P2;SDS_P1;SDS_P2;PMS_P1;PMS_P2;Temp;Humidity;BMP_temperature;BMP_pressure;BME280_temperature;BME280_humidity;BME280_pressure;Samples;Min_cycle;Max_cycle;Signal;HPM_P1;HPM_P2
2023/02/11 00:01:12;;;;;;;8.88;0.93;;;6.60;99.90;;;;;;5017319;28;20405;-77
2023/02/11 00:03:38;;;;;;;14.68;1.83;;;6.60;99.90;;;;;;5017578;28;20026;-78
2023/02/11 00:06:08;;;;;;;14.57;1.42;;;6.60;99.90;;;;;;5016858;28;20037;-77
2023/02/11 00:08:34;;;;;;;13.77;1.50;;;6.60;99.90;;;;;;5018052;28;20119;-78
2023/02/11 00:10:59;;;;;;;15.65;1.70;;;6.60;99.90;;;;;;5017113;28;20436;-78
2023/02/11 00:13:25;;;;;;;14.00;1.77;;;6.60;99.90;;;;;;5017240;28;20022;-77
2023/02/11 00:15:52;;;;;;;17.85;0.98;;;6.60;99.90;;;;;;5015881;28;20030;-77
2023/02/11 00:18:17;;;;;;;14.35;2.17;;;6.60;99.90;;;;;;5015996;28;20460;-78
2023/02/11 00:20:43;;;;;;;14.40;1.85;;;6.60;99.90;;;;;;5016340;28;20026;-78
2023/02/11 00:23:09;;;;;;;13.85;2.35;;;6.50;99.90;;;;;;5015633;28;20068;-78
2023/02/11 00:25:41;;;;;;;14.98;2.00;;;6.60;99.90;;;;;;5015746;28;20363;-78
2023/02/11 00:28:08;;;;;;;16.98;1.05;;;6.60;99.90;;;;;;5015910;28;20030;-78
2023/02/11 00:30:34;;;;;;;17.00;1.17;;;6.50;99.90;;;;;;5015637;28;20018;-78
2023/02/11 00:32:59;;;;;;;19.88;2.28;;;6.50;99.90;;;;;;5016916;28;20091;-78
2023/02/11 00:35:25;;;;;;;14.60;0.95;;;6.50;99.90;;;;;;5015368;28;20393;-78
2023/02/11 00:37:53;;;;;;;17.63;1.95;;;6.50;99.90;;;;;;5014762;28;20111;-78
2023/02/11 00:40:19;;;;;;;16.55;1.27;;;6.40;99.90;;;;;;5016584;28;20507;-78
2023/02/11 00:42:45;;;;;;;12.25;1.10;;;6.50;99.90;;;;;;5015202;28;20103;-77
2023/02/11 00:45:11;;;;;;;19.45;1.50;;;6.60;99.90;;;;;;5016609;28;20385;-77
2023/02/11 00:47:37;;;;;;;24.10;2.03;;;6.40;99.90;;;;;;5016599;28;20481;-77
2023/02/11 00:50:04;;;;;;;14.65;0.88;;;6.50;99.90;;;;;;5016567;28;20072;-77
2023/02/11 00:52:30;;;;;;;15.77;1.02;;;6.40;99.90;;;;;;5015377;28;20022;-78
2023/02/11 00:54:56;;;;;;;14.15;0.73;;;6.50;99.90;;;;;;5015184;28;20036;-77
2023/02/11 00:57:21;;;;;;;16.98;2.33;;;6.50;99.90;;;;;;5013835;28;20030;-78
2023/02/11 00:59:47;;;;;;;17.88;1.50;;;6.50;99.90;;;;;;5015190;28;20042;-78
2023/02/11 01:02:13;;;;;;;22.30;2.22;;;6.50;99.90;;;;;;5014881;28;20113;-78
2023/02/11 01:04:38;;;;;;;16.90;1.08;;;6.60;99.90;;;;;;5014876;28;20445;-78
2023/02/11 01:07:04;;;;;;;14.25;1.20;;;6.40;99.90;;;;;;5015944;28;20030;-78
2023/02/11 01:09:30;;;;;;;19.75;1.70;;;6.50;99.90;;;;;;5014653;28;20014;-78
2023/02/11 01:11:55;;;;;;;26.13;1.95;;;8.60;99.90;;;;;;5016169;28;20022;-78
2023/02/11 01:14:21;;;;;;;9.15;1.15;;;6.40;99.90;;;;;;5014907;28;20026;-78
2023/02/11 01:16:46;;;;;;;20.65;1.75;;;6.40;99.90;;;;;;5014868;28;20485;-78
2023/02/11 01:19:12;;;;;;;17.00;1.77;;;6.40;99.90;;;;;;5014987;28;20018;-78
2023/02/11 01:21:37;;;;;;;13.02;1.45;;;6.40;99.90;;;;;;5014577;28;20124;-77
2023/02/11 01:24:03;;;;;;;15.52;1.55;;;6.50;99.90;;;;;;5015900;28;20022;-77
2023/02/11 01:26:29;;;;;;;13.18;1.10;;;6.50;99.90;;;;;;5014548;28;20440;-78
2023/02/11 01:28:54;;;;;;;14.55;1.23;;;6.50;99.90;;;;;;5014761;28;20028;-78
2023/02/11 01:31:20;;;;;;;22.58;2.05;;;6.40;99.90;;;;;;5014381;28;20030;-78
2023/02/11 01:33:48;;;;;;;10.52;1.42;;;6.40;99.90;;;;;;5016332;28;20061;-78
2023/02/11 01:36:14;;;;;;;15.25;2.63;;;6.40;99.90;;;;;;5014458;28;20455;-78
2023/02/11 01:38:40;;;;;;;9.57;0.82;;;6.30;99.90;;;;;;5013863;28;20041;-77
2023/02/11 01:41:09;;;;;;;17.58;2.03;;;6.40;99.90;;;;;;5015509;28;20014;-77
2023/02/11 01:43:39;;;;;;;19.17;3.38;;;7.00;99.90;;;;;;5014279;28;20026;-78
2023/02/11 01:46:10;;;;;;;10.05;1.23;;;6.30;99.90;;;;;;5014352;28;20018;-78
2023/02/11 01:48:40;;;;;;;18.70;1.25;;;6.30;99.90;;;;;;5016115;28;20031;-78
2023/02/11 01:51:27;;;;;;;13.48;1.60;;;6.20;99.90;;;;;;5014200;28;20018;-77
2023/02/11 01:59:57;;;;;;;22.67;3.13;;;6.10;99.90;;;;;;5015149;28;20036;-78
2023/02/11 02:02:37;;;;;;;14.02;1.83;;;6.00;99.90;;;;;;4998305;28;20038;-77
2023/02/11 02:05:14;;;;;;;9.30;1.85;;;5.90;99.90;;;;;;5013190;28;20500;-78
2023/02/11 02:07:55;;;;;;;14.65;1.92;;;5.90;99.90;;;;;;5014252;28;20022;-78
2023/02/11 02:10:25;;;;;;;14.23;1.73;;;5.90;99.90;;;;;;5013868;28;20026;-78
2023/02/11 02:12:50;;;;;;;7.75;1.30;;;5.90;99.90;;;;;;5014907;28;20021;-78
2023/02/11 02:15:34;;;;;;;8.73;1.30;;;5.90;99.90;;;;;;5014881;28;20025;-78
2023/02/11 02:18:37;;;;;;;13.80;1.15;;;5.80;99.90;;;;;;5014950;28;20038;-78
2023/02/11 02:24:09;;;;;;;20.80;1.42;;;5.70;99.90;;;;;;5051484;28;20053;-78
2023/02/11 02:26:40;;;;;;;14.05;2.05;;;5.60;99.90;;;;;;5052978;28;20092;-77
2023/02/11 02:29:31;;;;;;;9.98;1.73;;;5.60;99.90;;;;;;5054308;28;20025;-78
2023/02/11 02:32:27;;;;;;;11.05;1.15;;;5.60;99.90;;;;;;5069955;28;20017;-78
2023/02/11 02:35:18;;;;;;;11.73;1.30;;;5.60;99.90;;;;;;5074829;28;20433;-78
2023/02/11 02:38:09;;;;;;;17.17;1.35;;;5.50;99.90;;;;;;5074175;28;20024;-78
2023/02/11 02:41:01;;;;;;;10.00;1.55;;;5.50;99.90;;;;;;5073516;28;20403;-78
2023/02/11 02:43:29;;;;;;;8.88;1.25;;;5.50;99.90;;;;;;5073806;28;20033;-78
2023/02/11 02:45:54;;;;;;;15.05;2.40;;;5.50;99.90;;;;;;5072211;28;20075;-77
2023/02/11 02:48:28;;;;;;;17.85;1.63;;;5.50;99.90;;;;;;5073044;28;20405;-77
2023/02/11 02:51:32;;;;;;;21.13;2.42;;;5.50;99.90;;;;;;5073964;28;20107;-77
2023/02/11 02:54:09;;;;;;;15.13;1.42;;;5.50;99.90;;;;;;5057735;28;20040;-78
2023/02/11 02:56:38;;;;;;;10.95;1.40;;;5.50;99.90;;;;;;5074035;28;20492;-77
2023/02/11 02:59:07;;;;;;;15.57;1.52;;;5.50;99.90;;;;;;5072230;28;20086;-76
2023/02/11 03:01:46;;;;;;;10.27;1.42;;;5.40;99.90;;;;;;5072568;28;20028;-76
2023/02/11 03:04:35;;;;;;;15.98;2.50;;;5.40;99.90;;;;;;5072387;28;20032;-76
2023/02/11 03:07:39;;;;;;;22.58;1.95;;;5.40;99.90;;;;;;5072026;28;20032;-76
2023/02/11 03:10:15;;;;;;;21.50;2.40;;;5.40;99.90;;;;;;5073642;28;20106;-76
2023/02/11 03:12:43;;;;;;;11.23;1.38;;;5.40;99.90;;;;;;5073796;28;20025;-76
2023/02/11 03:15:11;;;;;;;12.37;1.70;;;5.40;99.90;;;;;;5072200;28;20111;-77
2023/02/11 03:17:40;;;;;;;8.60;1.10;;;5.50;99.90;;;;;;5071855;28;20111;-76
2023/02/11 03:20:09;;;;;;;13.43;2.42;;;5.50;99.90;;;;;;5074881;28;20479;-76
2023/02/11 03:22:41;;;;;;;15.48;1.30;;;5.50;99.90;;;;;;5077449;28;20040;-76
2023/02/11 03:25:10;;;;;;;14.90;1.30;;;5.50;99.90;;;;;;5077670;28;20519;-76
2023/02/11 03:27:46;;;;;;;9.40;1.60;;;5.40;99.90;;;;;;5076435;28;20482;-76
2023/02/11 03:30:34;;;;;;;15.13;3.25;;;5.50;99.90;;;;;;5077460;28;20020;-76
2023/02/11 03:33:11;;;;;;;21.15;2.35;;;5.50;99.90;;;;;;5078076;28;20034;-76
2023/02/11 03:35:58;;;;;;;19.48;3.22;;;5.40;99.90;;;;;;5076281;28;20083;-76
2023/02/11 03:38:48;;;;;;;17.35;2.13;;;5.40;99.90;;;;;;5077471;28;20104;-76
2023/02/11 03:41:18;;;;;;;14.30;3.47;;;5.30;99.90;;;;;;5071204;28;20032;-76
2023/02/11 03:43:49;;;;;;;19.20;2.58;;;5.30;99.90;;;;;;5075970;28;20035;-76
2023/02/11 03:46:18;;;;;;;15.90;2.47;;;5.30;99.90;;;;;;5075994;28;20025;-76
2023/02/11 03:48:50;;;;;;;15.90;2.85;;;5.60;99.90;;;;;;5076122;28;20017;-76
2023/02/11 03:51:17;;;;;;;22.70;3.45;;;5.30;99.90;;;;;;5075885;28;20017;-76
2023/02/11 03:53:45;;;;;;;16.38;2.95;;;5.30;99.90;;;;;;5075922;28;20479;-76
2023/02/11 03:56:14;;;;;;;13.53;3.33;;;5.30;99.90;;;;;;5075839;28;20411;-76
2023/02/11 03:58:40;;;;;;;13.40;4.07;;;5.30;99.90;;;;;;5077358;28;20733;-76
2023/02/11 04:01:08;;;;;;;15.80;3.20;;;5.30;99.90;;;;;;5075788;28;20023;-77
2023/02/11 04:03:34;;;;;;;13.93;3.90;;;5.30;99.90;;;;;;5077671;28;20052;-77
2023/02/11 04:05:59;;;;;;;23.75;4.60;;;5.30;99.90;;;;;;5076763;28;20036;-77
2023/02/11 04:08:25;;;;;;;21.25;3.20;;;5.30;99.90;;;;;;5075856;28;20024;-77
2023/02/11 04:10:50;;;;;;;25.17;3.75;;;5.30;99.90;;;;;;5075388;28;20048;-77
2023/02/11 04:13:16;;;;;;;16.20;4.22;;;5.40;99.90;;;;;;5075047;28;20028;-76
2023/02/11 04:15:42;;;;;;;14.98;4.35;;;5.30;99.90;;;;;;5075319;28;20027;-76
2023/02/11 04:18:07;;;;;;;17.65;4.10;;;5.40;99.90;;;;;;5075441;28;20013;-76
2023/02/11 04:20:33;;;;;;;22.40;4.70;;;5.40;99.90;;;;;;5076660;28;20019;-77
2023/02/11 04:22:58;;;;;;;23.45;5.03;;;5.40;99.90;;;;;;5076742;28;20028;-76
2023/02/11 04:25:25;;;;;;;20.95;5.40;;;5.50;99.90;;;;;;5076653;28;20593;-76
2023/02/11 04:27:50;;;;;;;22.08;4.32;;;5.50;99.90;;;;;;5075322;28;20475;-76
2023/02/11 04:30:16;;;;;;;16.15;5.40;;;5.50;99.90;;;;;;5075076;28;20019;-76
2023/02/11 04:32:42;;;;;;;23.73;4.40;;;5.60;99.90;;;;;;5075120;28;20017;-77
2023/02/11 04:35:07;;;;;;;23.90;4.88;;;5.60;99.90;;;;;;5074989;28;20021;-76
2023/02/11 04:37:33;;;;;;;23.48;5.13;;;5.60;99.90;;;;;;5076417;28;20151;-77
2023/02/11 04:39:58;;;;;;;21.95;5.05;;;5.60;99.90;;;;;;5076122;28;20028;-77
2023/02/11 04:42:24;;;;;;;21.10;3.88;;;5.60;99.90;;;;;;5074814;28;20028;-76
2023/02/11 04:44:49;;;;;;;24.50;4.65;;;5.60;99.90;;;;;;5076139;28;20028;-76
2023/02/11 04:47:15;;;;;;;17.58;5.05;;;5.60;99.90;;;;;;5076326;28;20495;-77
2023/02/11 04:49:41;;;;;;;28.13;4.53;;;5.60;99.90;;;;;;5076127;28;20025;-76
2023/02/11 04:52:07;;;;;;;15.60;4.82;;;5.70;99.90;;;;;;5074694;28;20013;-76
2023/02/11 04:54:33;;;;;;;22.42;5.30;;;5.70;99.90;;;;;;5074732;28;20025;-76
2023/02/11 04:56:58;;;;;;;25.70;5.53;;;5.70;99.90;;;;;;5076052;28;20039;-76
2023/02/11 04:59:24;;;;;;;25.02;4.88;;;5.70;99.90;;;;;;5075965;28;20038;-76
2023/02/11 05:01:50;;;;;;;32.13;5.97;;;5.80;99.90;;;;;;5075910;28;20056;-75
2023/02/11 05:04:16;;;;;;;20.48;4.75;;;5.80;99.90;;;;;;5075733;28;20033;-76
2023/02/11 05:06:41;;;;;;;24.50;6.15;;;5.80;99.90;;;;;;5075761;28;20031;-76
2023/02/11 05:09:09;;;;;;;22.90;5.43;;;5.90;99.90;;;;;;5074124;28;20422;-76
2023/02/11 05:11:35;;;;;;;22.77;6.13;;;5.90;99.90;;;;;;5075102;28;20447;-76
2023/02/11 05:14:01;;;;;;;28.83;7.13;;;6.00;99.90;;;;;;5075196;28;20020;-76
2023/02/11 05:16:27;;;;;;;26.58;6.72;;;6.00;99.90;;;;;;5074516;28;20392;-77
2023/02/11 05:18:54;;;;;;;21.58;5.40;;;6.10;99.90;;;;;;5076123;28;20386;-75
2023/02/11 05:21:20;;;;;;;20.45;5.75;;;6.10;99.90;;;;;;5075215;28;20501;-76
2023/02/11 05:23:45;;;;;;;25.70;5.78;;;6.10;99.90;;;;;;5075240;28;20040;-76
2023/02/11 05:26:12;;;;;;;28.17;5.75;;;6.20;99.90;;;;;;5074242;28;20016;-76
2023/02/11 05:28:38;;;;;;;23.73;5.03;;;6.10;99.90;;;;;;5074359;28;20024;-76
2023/02/11 05:31:04;;;;;;;16.05;5.35;;;6.10;99.90;;;;;;5075239;28;20048;-76
2023/02/11 05:33:30;;;;;;;22.33;6.28;;;6.10;99.90;;;;;;5073929;28;20055;-76
2023/02/11 05:36:00;;;;;;;17.17;5.18;;;6.10;99.90;;;;;;5075120;28;20023;-77
2023/02/11 05:38:26;;;;;;;31.80;6.05;;;6.10;99.90;;;;;;5073793;28;20021;-76
2023/02/11 05:40:52;;;;;;;25.42;6.82;;;6.10;99.90;;;;;;5075090;28;20069;-76
2023/02/11 05:43:18;;;;;;;29.17;7.57;;;6.10;99.90;;;;;;5074283;28;20472;-76
2023/02/11 05:45:44;;;;;;;25.15;7.03;;;6.10;99.90;;;;;;5074516;28;20031;-76
2023/02/11 05:48:09;;;;;;;26.30;6.03;;;6.10;99.90;;;;;;5074287;28;20066;-76
2023/02/11 05:50:35;;;;;;;23.65;7.20;;;6.10;99.90;;;;;;5074759;28;20079;-76
2023/02/11 05:53:00;;;;;;;25.27;6.63;;;6.20;99.90;;;;;;5073818;28;20020;-76
2023/02/11 05:55:26;;;;;;;38.17;7.53;;;6.20;99.90;;;;;;5074767;28;20095;-76
2023/02/11 05:57:51;;;;;;;30.15;6.13;;;6.20;99.90;;;;;;5074843;28;20536;-76
2023/02/11 06:00:17;;;;;;;24.95;6.63;;;6.20;99.90;;;;;;5073591;28;20028;-76
2023/02/11 06:02:43;;;;;;;29.85;6.88;;;6.20;99.90;;;;;;5073555;28;20483;-77
2023/02/11 06:05:09;;;;;;;21.83;5.72;;;6.20;99.90;;;;;;5073325;28;20387;-76
2023/02/11 06:07:34;;;;;;;17.38;6.15;;;6.20;99.90;;;;;;5074416;28;20029;-76
2023/02/11 06:10:00;;;;;;;21.15;6.75;;;6.20;99.90;;;;;;5074656;28;20032;-76
2023/02/11 06:12:26;;;;;;;34.03;8.25;;;6.20;99.90;;;;;;5074286;28;20025;-76
2023/02/11 06:14:52;;;;;;;38.17;7.80;;;6.20;99.90;;;;;;5073937;28;20479;-76
2023/02/11 06:17:17;;;;;;;31.17;7.47;;;6.20;99.90;;;;;;5074328;28;20021;-76
2023/02/11 06:19:43;;;;;;;26.60;7.03;;;6.10;99.90;;;;;;5074795;28;20025;-76
2023/02/11 06:22:08;;;;;;;20.42;7.97;;;6.10;99.90;;;;;;5072962;28;20111;-76
2023/02/11 06:24:34;;;;;;;26.83;7.15;;;6.10;99.90;;;;;;5072839;28;20032;-76
2023/02/11 06:26:59;;;;;;;23.65;7.30;;;6.10;99.90;;;;;;5073065;28;20023;-76
2023/02/11 06:29:25;;;;;;;22.05;6.55;;;6.10;99.90;;;;;;5074900;28;20024;-76
2023/02/11 06:31:51;;;;;;;21.83;6.20;;;6.10;99.90;;;;;;5073990;28;20025;-76
2023/02/11 06:34:16;;;;;;;21.08;6.93;;;6.10;99.90;;;;;;5074206;28;20112;-76
2023/02/11 06:36:42;;;;;;;24.73;7.03;;;6.10;99.90;;;;;;5074345;28;20505;-76
2023/02/11 06:39:11;;;;;;;27.20;7.25;;;6.10;99.90;;;;;;5072952;28;20021;-76
2023/02/11 06:41:36;;;;;;;23.75;7.40;;;6.10;99.90;;;;;;5074156;28;20021;-76
2023/02/11 06:44:02;;;;;;;33.70;8.95;;;6.30;99.90;;;;;;5072332;28;20031;-76
2023/02/11 06:46:27;;;;;;;29.35;8.45;;;6.20;99.90;;;;;;5074377;28;20025;-76
2023/02/11 06:48:53;;;;;;;25.42;8.00;;;6.20;99.90;;;;;;5074713;28;20589;-76
2023/02/11 06:51:19;;;;;;;29.70;8.32;;;6.20;99.90;;;;;;5073012;28;20066;-76
2023/02/11 06:53:45;;;;;;;28.52;8.57;;;6.20;99.90;;;;;;5074145;28;20035;-76
2023/02/11 06:56:14;;;;;;;24.48;8.10;;;6.20;99.90;;;;;;5073097;28;20498;-76
2023/02/11 06:58:40;;;;;;;39.70;7.97;;;6.20;99.90;;;;;;5074308;28;20024;-76
2023/02/11 07:01:08;;;;;;;25.60;8.18;;;6.10;99.90;;;;;;5074977;28;20525;-76
2023/02/11 07:03:35;;;;;;;26.42;7.90;;;6.10;99.90;;;;;;5074863;28;20029;-76
2023/02/11 07:06:02;;;;;;;30.35;8.75;;;6.20;99.90;;;;;;5073088;28;20107;-76
2023/02/11 07:08:27;;;;;;;35.05;8.95;;;6.20;99.90;;;;;;5073463;28;20021;-76
2023/02/11 07:10:53;;;;;;;27.90;8.70;;;6.20;99.90;;;;;;5074082;28;20525;-76
2023/02/11 07:13:18;;;;;;;23.58;8.25;;;6.20;99.90;;;;;;5073360;28;20031;-76
2023/02/11 07:15:44;;;;;;;28.33;9.18;;;6.20;99.90;;;;;;5072533;28;20130;-76
2023/02/11 07:18:09;;;;;;;26.48;7.75;;;6.20;99.90;;;;;;5072956;28;20056;-76
2023/02/11 07:20:37;;;;;;;32.88;9.48;;;6.40;99.90;;;;;;5073039;28;20021;-76
2023/02/11 07:23:03;;;;;;;32.72;9.18;;;6.20;99.90;;;;;;5074355;28;20032;-77
2023/02/11 07:25:29;;;;;;;32.35;8.98;;;6.20;99.90;;;;;;5074057;28;20498;-77
2023/02/11 07:27:58;;;;;;;26.67;9.00;;;6.20;99.90;;;;;;5074259;28;20032;-77
2023/02/11 07:30:23;;;;;;;31.25;8.07;;;6.10;99.90;;;;;;5073998;28;20028;-76
2023/02/11 07:32:52;;;;;;;27.17;8.82;;;6.70;99.90;;;;;;5072759;28;20017;-76
2023/02/11 07:35:18;;;;;;;35.55;9.82;;;6.20;99.90;;;;;;5072522;28;20017;-76
2023/02/11 07:37:46;;;;;;;28.70;8.82;;;6.20;99.90;;;;;;5073953;28;20495;-76
2023/02/11 07:40:12;;;;;;;30.48;8.80;;;6.20;99.90;;;;;;5074397;28;20024;-77
2023/02/11 07:42:39;;;;;;;35.15;10.57;;;6.60;99.90;;;;;;5074254;28;20494;-77
2023/02/11 07:45:06;;;;;;;28.23;8.65;;;6.30;99.90;;;;;;5072769;28;20097;-77
2023/02/11 07:47:33;;;;;;;28.95;9.80;;;6.30;99.90;;;;;;5072397;28;20060;-77
2023/02/11 07:50:00;;;;;;;35.78;10.98;;;6.40;99.90;;;;;;5073518;28;20025;-77
2023/02/11 07:52:29;;;;;;;34.25;10.43;;;6.40;99.90;;;;;;5073382;28;20119;-76
2023/02/11 07:54:56;;;;;;;27.00;10.13;;;6.50;99.90;;;;;;5073458;28;20153;-76
2023/02/11 07:57:21;;;;;;;26.25;8.30;;;6.40;99.90;;;;;;5074039;28;20024;-76
2023/02/11 07:59:50;;;;;;;33.38;10.27;;;6.50;99.90;;;;;;5073713;28;20032;-77
2023/02/11 08:02:15;;;;;;;32.28;10.80;;;6.50;99.90;;;;;;5073769;28;20035;-77
2023/02/11 08:04:41;;;;;;;32.13;10.07;;;6.60;99.90;;;;;;5073298;28;20029;-77
2023/02/11 08:07:09;;;;;;;26.95;9.43;;;6.60;99.90;;;;;;5075184;28;20016;-76
2023/02/11 08:09:43;;;;;;;36.67;10.85;;;6.60;99.90;;;;;;5077746;28;20036;-75
2023/02/11 08:12:12;;;;;;;35.15;10.75;;;6.70;99.90;;;;;;5077504;28;20024;-75
2023/02/11 08:14:37;;;;;;;;;;;6.80;99.90;;;;;;5077923;28;20024;-76
2023/02/11 08:17:03;;;;;;;30.10;10.30;;;6.80;99.90;;;;;;5076172;28;19911;-77
2023/02/11 08:19:29;;;;;;;30.08;9.82;;;6.90;99.90;;;;;;5074981;28;20017;-74
2023/02/11 08:21:55;;;;;;;32.22;10.60;;;7.30;99.90;;;;;;5076675;28;20046;-74
2023/02/11 08:24:21;;;;;;;32.72;9.88;;;6.90;99.90;;;;;;5075512;28;20020;-75
2023/02/11 08:26:48;;;;;;;31.58;11.05;;;6.90;99.90;;;;;;5075371;28;20059;-75
2023/02/11 08:29:18;;;;;;;29.05;9.98;;;7.70;99.90;;;;;;5076749;28;20021;-75
2023/02/11 08:31:46;;;;;;;32.10;10.75;;;6.90;99.90;;;;;;5075561;28;20601;-75
2023/02/11 08:34:13;;;;;;;26.23;9.23;;;7.40;99.90;;;;;;5075601;28;20437;-75
2023/02/11 08:36:40;;;;;;;32.45;10.27;;;7.00;99.90;;;;;;5075366;28;20403;-75
2023/02/11 08:39:18;;;;;;;35.03;10.50;;;7.50;99.90;;;;;;5075387;28;20027;-75
2023/02/11 08:41:47;;;;;;;30.23;10.47;;;7.10;99.90;;;;;;5076535;28;20090;-75
2023/02/11 08:44:13;;;;;;;29.77;9.48;;;7.20;99.90;;;;;;5075345;28;20034;-75
2023/02/11 08:46:39;;;;;;;27.45;9.95;;;7.20;99.90;;;;;;5076780;28;20021;-75
2023/02/11 08:49:07;;;;;;;31.10;9.27;;;7.20;99.90;;;;;;5076513;28;20079;-75
2023/02/11 08:51:33;;;;;;;30.92;10.45;;;8.10;99.90;;;;;;5075172;28;20027;-75
2023/02/11 08:53:59;;;;;;;29.75;10.23;;;7.30;99.90;;;;;;5074421;28;20028;-75
2023/02/11 08:56:30;;;;;;;24.10;9.75;;;7.30;99.90;;;;;;5074834;28;20142;-75
2023/02/11 08:58:56;;;;;;;28.20;10.00;;;7.40;99.90;;;;;;5074950;28;20418;-75
2023/02/11 09:01:25;;;;;;;24.40;8.30;;;10.60;99.90;;;;;;5076448;28;20100;-75
2023/02/11 09:03:51;;;;;;;21.40;8.48;;;8.20;99.90;;;;;;5076095;28;20074;-75
2023/02/11 09:06:19;;;;;;;24.83;8.93;;;7.50;99.90;;;;;;5075394;28;20539;-75
2023/02/11 09:08:48;;;;;;;38.10;10.75;;;7.50;99.90;;;;;;5075985;28;20073;-75
2023/02/11 09:11:17;;;;;;;26.63;9.70;;;8.20;99.90;;;;;;5075335;28;20110;-75
2023/02/11 09:13:48;;;;;;;25.38;9.80;;;7.60;99.90;;;;;;5076900;28;20383;-75
2023/02/11 09:16:20;;;;;;;27.00;10.82;;;7.60;99.90;;;;;;5076980;28;20618;-75
2023/02/11 09:18:47;;;;;;;29.02;10.40;;;7.60;99.90;;;;;;5074508;28;20372;-75
2023/02/11 09:21:13;;;;;;;26.83;9.98;;;7.70;99.90;;;;;;5074746;28;20047;-75
2023/02/11 09:23:42;;;;;;;33.08;10.73;;;7.70;99.90;;;;;;5075699;28;20111;-75
2023/02/11 09:26:13;;;;;;;25.45;10.50;;;7.70;99.90;;;;;;5076333;28;20047;-76
2023/02/11 09:28:40;;;;;;;27.05;10.48;;;7.80;99.90;;;;;;5075824;28;20533;-74
2023/02/11 09:31:08;;;;;;;23.23;9.50;;;7.90;99.90;;;;;;5074693;28;20025;-76
2023/02/11 09:33:40;;;;;;;24.13;9.07;;;8.00;99.90;;;;;;5073938;28;20441;-76
2023/02/11 09:36:16;;;;;;;29.98;10.23;;;8.00;99.90;;;;;;5074428;28;20025;-76
2023/02/11 09:38:42;;;;;;;22.83;9.30;;;8.00;99.90;;;;;;5074445;28;20024;-76
2023/02/11 09:41:46;;;;;;;28.33;9.70;;;8.00;99.90;;;;;;5075852;28;20066;-76
2023/02/11 09:44:24;;;;;;;27.50;9.57;;;8.00;99.90;;;;;;5066819;28;20040;-75
2023/02/11 09:46:58;;;;;;;26.70;10.03;;;8.10;99.90;;;;;;5074002;28;20021;-76
2023/02/11 09:49:39;;;;;;;25.98;9.25;;;8.30;99.90;;;;;;5075015;28;20099;-77
2023/02/11 09:52:11;;;;;;;24.38;9.60;;;8.10;99.90;;;;;;5073101;28;20028;-77
2023/02/11 09:54:54;;;;;;;26.67;9.80;;;8.10;99.90;;;;;;5074131;28;20025;-77
2023/02/11 09:57:20;;;;;;;28.88;10.63;;;8.10;99.90;;;;;;5073243;28;20142;-77
2023/02/11 09:59:48;;;;;;;27.23;10.73;;;8.10;99.90;;;;;;5074043;28;20108;-77
2023/02/11 10:02:48;;;;;;;22.33;9.55;;;8.20;99.90;;;;;;5073819;28;20029;-77
2023/02/11 10:05:24;;;;;;;22.13;9.18;;;8.40;99.90;;;;;;5067361;28;20102;-77
2023/02/11 10:08:13;;;;;;;20.30;8.65;;;8.50;99.90;;;;;;5075300;28;20103;-76
2023/02/11 10:10:38;;;;;;;;;;;8.60;99.90;;;;;;5073369;28;20414;-76
2023/02/11 10:13:22;;;;;;;25.35;8.85;;;8.70;99.90;;;;;;5073829;28;19959;-77
2023/02/11 10:16:05;;;;;;;28.90;10.85;;;9.60;99.90;;;;;;5074499;28;20464;-76
2023/02/11 10:18:58;;;;;;;28.25;9.63;;;8.80;99.90;;;;;;5074120;28;20051;-76
2023/02/11 10:21:34;;;;;;;23.60;8.45;;;8.80;99.90;;;;;;5073554;28;20082;-77
2023/02/11 10:24:05;;;;;;;19.95;8.85;;;9.90;99.90;;;;;;5075073;28;20039;-77
2023/02/11 10:26:32;;;;;;;22.00;7.97;;;8.80;99.90;;;;;;5074070;28;20068;-77
2023/02/11 10:29:11;;;;;;;26.98;9.18;;;9.00;99.90;;;;;;5073467;28;20013;-76
2023/02/11 10:31:38;;;;;;;;;;;8.80;99.90;;;;;;5075900;28;20021;-76
2023/02/11 10:34:13;;;;;;;23.23;8.65;;;8.90;99.90;;;;;;5074691;28;20264;-76
2023/02/11 10:36:44;;;;;;;24.83;8.77;;;10.30;99.90;;;;;;5074342;28;20103;-76
2023/02/11 10:39:19;;;;;;;26.25;9.23;;;8.90;99.90;;;;;;5073271;28;20024;-76
2023/02/11 10:42:00;;;;;;;22.80;8.60;;;8.90;99.90;;;;;;5074446;28;20488;-76
2023/02/11 10:44:37;;;;;;;21.00;9.15;;;9.00;99.90;;;;;;5074898;28;20368;-76
2023/02/11 10:47:20;;;;;;;22.77;9.07;;;9.00;99.90;;;;;;5074880;28;20056;-76
2023/02/11 10:49:46;;;;;;;20.50;8.85;;;9.10;99.90;;;;;;5075052;28;20467;-76
2023/02/11 10:52:17;;;;;;;22.15;7.63;;;9.20;99.90;;;;;;5073038;28;20028;-77
2023/02/11 10:54:58;;;;;;;20.95;8.20;;;9.30;99.90;;;;;;5073171;28;20037;-77
2023/02/11 10:57:33;;;;;;;22.63;8.50;;;9.40;99.90;;;;;;5074197;28;20040;-76
2023/02/11 11:00:07;;;;;;;16.05;7.63;;;9.60;99.90;;;;;;5072491;28;20016;-77
2023/02/11 11:02:37;;;;;;;20.00;7.00;;;9.70;99.90;;;;;;5072889;28;20123;-76
2023/02/11 11:05:16;;;;;;;16.85;6.43;;;10.00;99.90;;;;;;5072734;28;20021;-77
2023/02/11 11:07:57;;;;;;;16.73;6.88;;;10.10;99.90;;;;;;5074281;28;20016;-77
2023/02/11 11:10:33;;;;;;;15.45;6.43;;;10.20;99.90;;;;;;5072818;28;20019;-76
2023/02/11 11:12:59;;;;;;;13.48;6.78;;;10.20;99.90;;;;;;5072971;28;20052;-76
2023/02/11 11:15:30;;;;;;;17.05;6.90;;;10.30;99.90;;;;;;5074701;28;20463;-76
2023/02/11 11:18:14;;;;;;;13.52;5.72;;;10.30;99.90;;;;;;5073408;28;20025;-77
2023/02/11 11:21:04;;;;;;;16.02;5.63;;;10.30;99.90;;;;;;5073033;28;20550;-77
2023/02/11 11:23:30;;;;;;;14.35;6.70;;;10.30;99.90;;;;;;5072834;28;20060;-76
2023/02/11 11:26:10;;;;;;;13.57;5.50;;;10.40;99.90;;;;;;5073033;28;20017;-77
2023/02/11 11:28:52;;;;;;;11.38;5.13;;;10.40;99.90;;;;;;5072495;28;20119;-77
2023/02/11 11:31:25;;;;;;;15.25;4.43;;;10.50;99.90;;;;;;5073953;28;20029;-76
2023/02/11 11:33:53;;;;;;;11.80;4.32;;;10.60;99.90;;;;;;5072557;28;20032;-77
2023/02/11 11:36:22;;;;;;;14.13;5.13;;;10.70;99.90;;;;;;5074314;28;20066;-77
2023/02/11 11:38:58;;;;;;;11.48;4.43;;;10.90;99.90;;;;;;5072460;28;20112;-77
2023/02/11 11:41:29;;;;;;;8.43;3.67;;;11.00;99.90;;;;;;5076298;28;20032;-76
2023/02/11 11:44:16;;;;;;;12.50;3.45;;;11.20;99.90;;;;;;5075957;28;20024;-76
2023/02/11 11:46:43;;;;;;;9.27;3.45;;;11.20;99.90;;;;;;5076442;28;20020;-77
2023/02/11 11:49:17;;;;;;;8.18;3.00;;;12.00;99.90;;;;;;5077924;28;20498;-77
2023/02/11 11:51:57;;;;;;;10.70;3.75;;;11.10;99.90;;;;;;5076508;28;20020;-77
2023/02/11 11:54:25;;;;;;;8.50;3.10;;;11.10;99.90;;;;;;5077592;28;20021;-77
2023/02/11 11:57:18;;;;;;;6.47;2.60;;;11.10;99.90;;;;;;5076288;28;20028;-76
2023/02/11 11:59:45;;;;;;;9.75;3.17;;;11.00;99.90;;;;;;5076945;28;20040;-77
2023/02/11 12:02:26;;;;;;;9.27;2.88;;;11.00;99.90;;;;;;5075724;28;20046;-77
2023/02/11 12:05:06;;;;;;;7.22;3.05;;;12.70;99.90;;;;;;5077180;28;20039;-77
2023/02/11 12:08:03;;;;;;;5.38;2.97;;;11.10;99.90;;;;;;5076117;28;20063;-77
2023/02/11 12:11:06;;;;;;;9.25;2.70;;;11.10;99.90;;;;;;5075988;28;20024;-77
2023/02/11 12:13:44;;;;;;;7.45;2.75;;;11.00;99.90;;;;;;5065960;28;20390;-77
2023/02/11 12:16:19;;;;;;;7.57;2.92;;;11.00;99.90;;;;;;5077550;28;20048;-76
2023/02/11 12:19:02;;;;;;;7.38;2.35;;;10.90;99.90;;;;;;5076969;28;20583;-77
2023/02/11 12:22:08;;;;;;;8.00;3.70;;;10.80;99.90;;;;;;5075525;28;20097;-77
2023/02/11 12:24:42;;;;;;;5.03;2.67;;;10.70;99.90;;;;;;5076026;28;20131;-76
2023/02/11 12:27:15;;;;;;;7.82;2.67;;;10.80;99.90;;;;;;5076880;28;20104;-76
2023/02/11 12:30:04;;;;;;;8.27;2.50;;;10.80;99.90;;;;;;5076646;28;20031;-77
2023/02/11 12:32:55;;;;;;;6.28;2.40;;;10.90;99.90;;;;;;5077271;28;20052;-76
2023/02/11 12:35:33;;;;;;;6.95;2.50;;;11.00;99.90;;;;;;5076751;28;20078;-76
2023/02/11 12:38:24;;;;;;;7.55;3.00;;;11.10;99.90;;;;;;5076597;28;20031;-77
2023/02/11 12:41:09;;;;;;;10.77;3.30;;;11.20;99.90;;;;;;5075449;28;20123;-76
2023/02/11 12:43:41;;;;;;;8.60;2.28;;;11.30;99.90;;;;;;5075391;28;20020;-76
2023/02/11 12:46:42;;;;;;;4.10;2.15;;;11.30;99.90;;;;;;5074964;28;20101;-76
2023/02/11 12:49:08;;;;;;;9.00;3.05;;;11.40;99.90;;;;;;5075936;28;20066;-77
2023/02/11 12:51:45;;;;;;;7.25;2.35;;;11.50;99.90;;;;;;5076398;28;20485;-77
2023/02/11 12:54:52;;;;;;;5.57;2.00;;;11.70;99.90;;;;;;5075281;28;20033;-76
2023/02/11 12:57:25;;;;;;;4.25;1.90;;;11.90;99.90;;;;;;5064026;28;20033;-77
2023/02/11 13:00:05;;;;;;;4.32;1.67;;;12.90;99.90;;;;;;5076038;28;20463;-76
2023/02/11 13:02:50;;;;;;;3.90;1.60;;;12.20;99.90;;;;;;5076065;28;20387;-77
2023/02/11 13:05:36;;;;;;;3.75;1.73;;;12.30;99.90;;;;;;5074976;28;20029;-76
2023/02/11 13:08:27;;;;;;;5.93;2.45;;;12.20;99.90;;;;;;5076603;28;20460;-76
2023/02/11 13:11:19;;;;;;;7.30;1.90;;;12.10;99.90;;;;;;5074525;28;20104;-76
2023/02/11 13:13:47;;;;;;;4.18;1.98;;;12.00;99.90;;;;;;5076006;28;20499;-76
2023/02/11 13:16:39;;;;;;;6.45;1.83;;;12.00;99.90;;;;;;5075007;28;20032;-76